Terminal Aerodrome Forecast
Issued by NWS

Home | Current Version | Previous Version | Text Only | Print | Product List | Glossary On
Versions: 1 2 3 4 5 6 7 8 9 10 11 12 13 14 15
452
FTUS43 KGRB 041138
TAFATW
TAF
KATW 041138Z 0412/0512 34011G18KT P6SM SCT030 BKN070
      TEMPO 0412/0414 BKN030
     FM041400 36016G26KT P6SM BKN030 BKN070
     FM042300 02014G20KT P6SM SCT070
     FM050300 01008KT P6SM SKC=

USA.gov is the U.S. government's official web portal to all federal, state and local government web resources and services.